Time;durP1;ratioP1;P1;durP2;ratioP2;P2;SDS_P1;SDS_P2;PMS_P1;PMS_P2;Temp;Humidity;BMP_temperature;BMP_pressure;BME280_temperature;BME280_humidity;BME280_pressure;Samples;Min_cycle;Max_cycle;Signal;HPM_P1;HPM_P2
2022/03/08 00:00:57;;;;;;;1.20;1.20;;;3.60;99.90;;;;;;6286847;28;20457;-75
2022/03/08 00:04:02;;;;;;;1.20;1.20;;;3.50;99.90;;;;;;6286921;28;20294;-75
2022/03/08 00:07:10;;;;;;;1.50;1.40;;;3.50;99.90;;;;;;6286659;28;20441;-76
2022/03/08 00:10:17;;;;;;;1.67;1.40;;;3.40;99.90;;;;;;6287085;28;20331;-75
2022/03/08 00:13:24;;;;;;;1.80;1.40;;;3.40;99.90;;;;;;6286416;28;20474;-76
2022/03/08 00:16:29;;;;;;;1.40;1.30;;;3.40;99.90;;;;;;6286650;28;20294;-76
2022/03/08 00:19:34;;;;;;;3.50;1.40;;;3.40;99.90;;;;;;6287026;28;20301;-75
2022/03/08 00:22:40;;;;;;;3.97;1.60;;;3.30;99.90;;;;;;6286217;28;20297;-75
2022/03/08 00:25:46;;;;;;;1.83;1.40;;;3.30;99.90;;;;;;6286916;28;20273;-75
2022/03/08 00:28:52;;;;;;;1.80;1.30;;;3.20;99.90;;;;;;6285824;28;20302;-75
2022/03/08 00:31:58;;;;;;;2.90;1.70;;;3.00;99.90;;;;;;6286295;28;20281;-75
2022/03/08 00:35:06;;;;;;;2.77;1.43;;;3.00;99.90;;;;;;6285688;28;20274;-75
2022/03/08 00:38:15;;;;;;;1.80;1.40;;;3.00;99.90;;;;;;6286227;28;20366;-75
2022/03/08 00:41:21;;;;;;;4.43;1.80;;;2.90;99.90;;;;;;6286169;28;20464;-75
2022/03/08 00:44:27;;;;;;;2.30;1.70;;;2.90;99.90;;;;;;6286038;28;20298;-75
2022/03/08 00:47:33;;;;;;;3.33;1.77;;;2.80;99.90;;;;;;6285359;28;20300;-75
2022/03/08 00:50:39;;;;;;;4.50;1.70;;;2.90;99.90;;;;;;6285598;28;20289;-75
2022/03/08 00:53:44;;;;;;;6.00;1.63;;;2.80;99.90;;;;;;6286179;28;20452;-75
2022/03/08 00:56:50;;;;;;;4.80;1.90;;;2.80;99.90;;;;;;6285820;28;20295;-75
2022/03/08 00:59:56;;;;;;;1.93;1.37;;;2.70;99.90;;;;;;6268419;28;20465;-75
2022/03/08 01:03:02;;;;;;;1.60;1.60;;;2.70;99.90;;;;;;6285674;28;20292;-74
2022/03/08 01:06:09;;;;;;;3.13;1.70;;;2.60;99.90;;;;;;6285488;28;20463;-74
2022/03/08 01:09:14;;;;;;;2.20;1.73;;;2.50;99.90;;;;;;6285684;28;20300;-75
2022/03/08 01:12:20;;;;;;;3.23;2.07;;;2.50;99.90;;;;;;6285124;28;20288;-75
2022/03/08 01:15:28;;;;;;;1.67;1.50;;;2.40;99.90;;;;;;6267950;28;20274;-75
2022/03/08 01:18:34;;;;;;;1.93;1.60;;;2.40;99.90;;;;;;6285563;28;20302;-75
2022/03/08 01:21:39;;;;;;;1.60;1.50;;;2.40;99.90;;;;;;6268601;28;20276;-75
2022/03/08 01:24:44;;;;;;;4.00;1.97;;;2.40;99.90;;;;;;6285459;28;20300;-75
2022/03/08 01:27:51;;;;;;;1.90;1.80;;;2.30;99.90;;;;;;6285377;28;20486;-75
2022/03/08 01:30:58;;;;;;;4.63;1.60;;;2.30;99.90;;;;;;6284917;28;20272;-75
2022/03/08 01:34:03;;;;;;;3.70;2.33;;;2.30;99.90;;;;;;6285191;28;20298;-74
2022/03/08 01:37:10;;;;;;;1.60;1.50;;;2.40;99.90;;;;;;6285283;28;20292;-75
2022/03/08 01:40:16;;;;;;;1.80;1.70;;;2.30;99.90;;;;;;6285780;28;20267;-75
2022/03/08 01:43:21;;;;;;;3.03;1.70;;;2.30;99.90;;;;;;6285365;28;20483;-75
2022/03/08 01:46:28;;;;;;;6.20;1.80;;;2.30;99.90;;;;;;6284608;28;20279;-75
2022/03/08 01:49:34;;;;;;;4.43;1.60;;;2.20;99.90;;;;;;6272653;28;20301;-75
2022/03/08 01:52:40;;;;;;;3.63;1.70;;;2.10;99.90;;;;;;6288392;28;20305;-76
2022/03/08 01:55:46;;;;;;;1.70;1.60;;;2.00;99.90;;;;;;6290581;28;20270;-75
2022/03/08 01:59:02;;;;;;;5.13;1.83;;;2.00;99.90;;;;;;6289442;28;20295;-75
2022/03/08 02:02:11;;;;;;;2.13;1.70;;;1.90;99.90;;;;;;6289988;28;20269;-75
2022/03/08 02:05:17;;;;;;;3.90;1.93;;;1.90;99.90;;;;;;6290150;28;20293;-75
2022/03/08 02:08:22;;;;;;;2.03;1.93;;;1.80;99.90;;;;;;6283327;28;20309;-75
2022/03/08 02:11:27;;;;;;;5.07;2.07;;;1.70;99.90;;;;;;6265101;28;20272;-75
2022/03/08 02:14:33;;;;;;;4.43;2.00;;;1.70;99.90;;;;;;6264711;28;20305;-76
2022/03/08 02:17:40;;;;;;;2.03;1.93;;;1.70;99.90;;;;;;6264603;28;20297;-75
2022/03/08 02:20:45;;;;;;;3.93;1.80;;;1.70;99.90;;;;;;6264334;28;20273;-75
2022/03/08 02:23:52;;;;;;;2.97;1.90;;;1.60;99.90;;;;;;6263902;28;20304;-75
2022/03/08 02:26:57;;;;;;;3.50;1.93;;;1.50;99.90;;;;;;6264242;28;20281;-76
2022/03/08 02:30:03;;;;;;;3.37;1.80;;;1.50;99.90;;;;;;6264868;28;20272;-76
2022/03/08 02:33:11;;;;;;;2.97;1.53;;;1.60;99.90;;;;;;6263646;28;20564;-76
2022/03/08 02:36:17;;;;;;;1.97;1.87;;;1.50;99.90;;;;;;6264387;28;20279;-75
2022/03/08 02:39:23;;;;;;;2.30;1.90;;;1.50;99.90;;;;;;6263879;28;20303;-75
2022/03/08 02:42:29;;;;;;;1.70;1.70;;;1.60;99.90;;;;;;6263880;28;20311;-76
2022/03/08 02:45:35;;;;;;;1.80;1.70;;;1.60;99.90;;;;;;6263466;28;20273;-75
2022/03/08 02:48:40;;;;;;;3.03;1.90;;;1.50;99.90;;;;;;6264139;28;20303;-75
2022/03/08 02:51:45;;;;;;;1.63;1.60;;;1.50;99.90;;;;;;6263945;28;20272;-75
2022/03/08 02:54:52;;;;;;;2.40;1.80;;;1.50;99.90;;;;;;6263023;28;20303;-75
2022/03/08 02:57:58;;;;;;;1.80;1.80;;;1.50;99.90;;;;;;6263533;28;20633;-75
2022/03/08 03:01:03;;;;;;;4.53;1.87;;;1.50;99.90;;;;;;6263275;28;20269;-75
2022/03/08 03:04:09;;;;;;;2.57;1.70;;;1.50;99.90;;;;;;6263173;28;20292;-75
2022/03/08 03:07:15;;;;;;;1.93;1.80;;;1.40;99.90;;;;;;6263399;28;20554;-75
2022/03/08 03:10:24;;;;;;;1.80;1.70;;;1.40;99.90;;;;;;6263692;28;20296;-75
2022/03/08 03:13:29;;;;;;;3.00;2.07;;;1.30;99.90;;;;;;6262829;28;20300;-75
2022/03/08 03:16:34;;;;;;;2.63;1.70;;;1.30;99.90;;;;;;6263749;28;20273;-75
2022/03/08 03:19:40;;;;;;;3.60;2.10;;;1.30;99.90;;;;;;6262971;28;20300;-75
2022/03/08 03:22:46;;;;;;;1.47;1.47;;;1.20;99.90;;;;;;6263178;28;20478;-75
2022/03/08 03:25:52;;;;;;;3.63;2.03;;;1.20;99.90;;;;;;6263171;28;20271;-75
2022/03/08 03:28:58;;;;;;;1.93;1.83;;;1.20;99.90;;;;;;6263185;28;20306;-75
2022/03/08 03:32:05;;;;;;;2.10;1.90;;;1.20;99.90;;;;;;6263145;28;20267;-75
2022/03/08 03:35:12;;;;;;;3.93;1.70;;;1.10;99.90;;;;;;6263383;28;20272;-75
2022/03/08 03:38:18;;;;;;;1.70;1.60;;;1.10;99.90;;;;;;6262981;28;20296;-75
2022/03/08 03:41:24;;;;;;;2.67;1.80;;;1.10;99.90;;;;;;6262759;28;20560;-75
2022/03/08 03:44:30;;;;;;;3.63;1.70;;;1.20;99.90;;;;;;6262702;28;20300;-75
2022/03/08 03:47:35;;;;;;;1.77;1.63;;;1.20;99.90;;;;;;6262631;28;20292;-75
2022/03/08 03:50:41;;;;;;;5.40;2.00;;;1.30;99.90;;;;;;6262754;28;20272;-75
2022/03/08 03:53:47;;;;;;;5.00;1.80;;;1.30;99.90;;;;;;6270061;28;20330;-75
2022/03/08 03:56:53;;;;;;;2.10;1.60;;;1.30;99.90;;;;;;6277691;28;20280;-76
2022/03/08 03:59:59;;;;;;;2.00;1.90;;;1.20;99.90;;;;;;6262530;28;20295;-75
2022/03/08 04:03:04;;;;;;;1.40;1.40;;;1.20;99.90;;;;;;6249631;28;20296;-75
2022/03/08 04:06:09;;;;;;;2.83;1.60;;;1.20;99.90;;;;;;6262440;28;20562;-75
2022/03/08 04:09:15;;;;;;;2.00;1.83;;;1.20;99.90;;;;;;6262300;28;20312;-75
2022/03/08 04:12:21;;;;;;;2.23;2.00;;;1.20;99.90;;;;;;6260568;28;20292;-75
2022/03/08 04:15:27;;;;;;;1.97;1.87;;;1.10;99.90;;;;;;6261988;28;20269;-75
2022/03/08 04:18:32;;;;;;;1.80;1.80;;;1.10;99.90;;;;;;6261249;28;20307;-75
2022/03/08 04:21:38;;;;;;;2.13;2.03;;;1.00;99.90;;;;;;6262239;28;20274;-75
2022/03/08 04:24:46;;;;;;;3.97;2.50;;;1.10;99.90;;;;;;6261217;28;20594;-75
2022/03/08 04:27:53;;;;;;;1.80;1.70;;;1.00;99.90;;;;;;6261456;28;20380;-75
2022/03/08 04:30:58;;;;;;;2.03;1.80;;;1.00;99.90;;;;;;6261928;28;20275;-75
2022/03/08 04:34:04;;;;;;;1.97;1.73;;;1.00;99.90;;;;;;6261124;28;20307;-75
2022/03/08 04:37:09;;;;;;;1.67;1.67;;;1.00;99.90;;;;;;6260562;28;20271;-75
2022/03/08 04:40:15;;;;;;;1.80;1.80;;;0.90;99.90;;;;;;6260801;28;20295;-75
2022/03/08 04:43:22;;;;;;;1.77;1.77;;;1.00;99.90;;;;;;6261134;28;20296;-75
2022/03/08 04:46:28;;;;;;;2.53;1.97;;;1.00;99.90;;;;;;6261000;28;20270;-75
2022/03/08 04:49:34;;;;;;;2.33;2.00;;;1.00;99.90;;;;;;6261426;28;20305;-74
2022/03/08 04:52:39;;;;;;;3.03;1.80;;;1.00;99.90;;;;;;6261248;28;20303;-75
2022/03/08 04:55:44;;;;;;;1.43;1.43;;;1.00;99.90;;;;;;6260851;28;20271;-74
2022/03/08 04:58:52;;;;;;;2.00;1.90;;;0.90;99.90;;;;;;6260928;28;20303;-75
2022/03/08 05:01:59;;;;;;;2.13;1.93;;;0.90;99.90;;;;;;6259340;28;20271;-75
2022/03/08 05:05:05;;;;;;;2.33;1.70;;;1.00;99.90;;;;;;6261438;28;20562;-75
2022/03/08 05:08:15;;;;;;;2.00;1.90;;;0.90;99.90;;;;;;6260549;28;20331;-76
2022/03/08 05:11:21;;;;;;;2.10;1.80;;;0.90;99.90;;;;;;6260747;28;20279;-76
2022/03/08 05:14:27;;;;;;;2.70;2.17;;;0.90;99.90;;;;;;6261080;28;20330;-75
2022/03/08 05:17:33;;;;;;;1.90;1.80;;;0.80;99.90;;;;;;6260214;28;20295;-75
2022/03/08 05:20:38;;;;;;;2.13;1.93;;;0.80;99.90;;;;;;6261060;28;20295;-75
2022/03/08 05:23:44;;;;;;;2.37;2.00;;;0.80;99.90;;;;;;6264047;28;20325;-75
2022/03/08 05:26:49;;;;;;;1.93;1.83;;;0.80;99.90;;;;;;6265948;28;20272;-75
2022/03/08 05:29:56;;;;;;;2.20;2.07;;;0.80;99.90;;;;;;6265837;28;20304;-75
2022/03/08 05:33:01;;;;;;;3.30;1.83;;;0.80;99.90;;;;;;6265772;28;20320;-75
2022/03/08 05:36:07;;;;;;;3.43;1.77;;;0.70;99.90;;;;;;6265182;28;20442;-75
2022/03/08 05:39:12;;;;;;;2.00;1.90;;;0.80;99.90;;;;;;6265842;28;20300;-75
2022/03/08 05:42:18;;;;;;;1.90;1.80;;;0.80;99.90;;;;;;6265346;28;20299;-75
2022/03/08 05:45:25;;;;;;;1.80;1.80;;;0.80;99.90;;;;;;6265377;28;20275;-75
2022/03/08 05:48:30;;;;;;;1.80;1.70;;;0.80;99.90;;;;;;6265514;28;20299;-75
2022/03/08 05:51:35;;;;;;;2.03;1.90;;;0.80;99.90;;;;;;6265337;28;20284;-75
2022/03/08 05:54:41;;;;;;;4.47;1.97;;;0.80;99.90;;;;;;6265670;28;20297;-75
2022/03/08 05:57:47;;;;;;;2.10;1.90;;;0.70;99.90;;;;;;6264517;28;20467;-75
2022/03/08 06:00:54;;;;;;;7.90;2.20;;;0.80;99.90;;;;;;6265576;28;20295;-75
2022/03/08 06:03:59;;;;;;;2.07;1.97;;;0.70;99.90;;;;;;6264782;28;20299;-75
2022/03/08 06:07:05;;;;;;;2.00;2.00;;;0.70;99.90;;;;;;6265210;28;20559;-76
2022/03/08 06:10:12;;;;;;;4.10;2.10;;;0.80;99.90;;;;;;6302078;28;20301;-75
2022/03/08 06:13:17;;;;;;;2.50;2.30;;;0.90;99.90;;;;;;6314201;28;20592;-75
2022/03/08 06:16:24;;;;;;;2.23;2.00;;;0.90;99.90;;;;;;6314411;28;20268;-75
2022/03/08 06:19:29;;;;;;;2.40;2.27;;;1.00;99.90;;;;;;6313560;28;20308;-75
2022/03/08 06:22:35;;;;;;;2.47;1.97;;;1.00;99.90;;;;;;6313906;28;20293;-75
2022/03/08 06:25:41;;;;;;;4.10;2.20;;;1.00;99.90;;;;;;6314698;28;20277;-75
2022/03/08 06:28:46;;;;;;;5.10;2.20;;;0.90;99.90;;;;;;6313847;28;20455;-75
2022/03/08 06:31:53;;;;;;;2.20;2.00;;;1.00;99.90;;;;;;6314521;28;20567;-75
2022/03/08 06:34:58;;;;;;;1.97;1.87;;;1.00;99.90;;;;;;6312853;28;20285;-75
2022/03/08 06:38:04;;;;;;;3.87;2.30;;;1.10;99.90;;;;;;6313573;28;20297;-76
2022/03/08 06:41:10;;;;;;;4.17;1.90;;;1.10;99.90;;;;;;6314554;28;20293;-75
2022/03/08 06:44:15;;;;;;;2.03;1.90;;;1.10;99.90;;;;;;6313876;28;20306;-75
2022/03/08 06:47:22;;;;;;;2.43;2.23;;;1.20;99.90;;;;;;6312623;28;20293;-75
2022/03/08 06:50:27;;;;;;;3.43;2.13;;;1.20;99.90;;;;;;6313458;28;20282;-75
2022/03/08 06:53:32;;;;;;;2.87;1.93;;;1.30;99.90;;;;;;6313603;28;20304;-75
2022/03/08 06:56:38;;;;;;;2.10;2.00;;;1.30;99.90;;;;;;6313863;28;20277;-75
2022/03/08 06:59:43;;;;;;;2.47;2.17;;;1.30;99.90;;;;;;6313852;28;20297;-74
2022/03/08 07:02:50;;;;;;;4.83;2.30;;;1.40;99.90;;;;;;6312299;28;20301;-75
2022/03/08 07:05:55;;;;;;;2.47;2.33;;;1.50;99.90;;;;;;6313126;28;20278;-76
2022/03/08 07:09:01;;;;;;;2.37;2.17;;;1.50;99.90;;;;;;6312238;28;20302;-75
2022/03/08 07:12:08;;;;;;;4.17;2.37;;;1.50;99.90;;;;;;6289837;28;20274;-75
2022/03/08 07:15:14;;;;;;;5.67;2.00;;;1.60;99.90;;;;;;6271130;28;20338;-75
2022/03/08 07:18:21;;;;;;;8.80;2.03;;;1.60;99.90;;;;;;6287581;28;20298;-75
2022/03/08 07:21:27;;;;;;;3.20;1.90;;;1.70;99.90;;;;;;6287417;28;20291;-75
2022/03/08 07:24:33;;;;;;;4.90;2.00;;;1.80;99.90;;;;;;6287457;28;20458;-75
2022/03/08 07:27:38;;;;;;;1.93;1.70;;;1.80;99.90;;;;;;6286840;28;20295;-75
2022/03/08 07:30:44;;;;;;;3.33;2.07;;;1.90;99.90;;;;;;6288339;28;20271;-75
2022/03/08 07:33:51;;;;;;;2.87;1.77;;;2.00;99.90;;;;;;6287498;28;20576;-76
2022/03/08 07:36:57;;;;;;;3.97;2.00;;;2.10;99.90;;;;;;6286980;28;20267;-75
2022/03/08 07:40:05;;;;;;;4.20;2.07;;;2.20;99.90;;;;;;6287341;28;20573;-75
2022/03/08 07:43:11;;;;;;;2.63;2.00;;;2.30;99.90;;;;;;6287281;28;20302;-76
2022/03/08 07:46:17;;;;;;;2.20;1.90;;;2.20;99.90;;;;;;6287408;28;20270;-75
2022/03/08 07:49:25;;;;;;;2.00;1.90;;;2.20;99.90;;;;;;6287221;28;20575;-75
2022/03/08 07:52:31;;;;;;;3.23;1.80;;;2.20;99.90;;;;;;6286109;28;20295;-75
2022/03/08 07:55:36;;;;;;;5.90;1.83;;;2.20;99.90;;;;;;6286583;28;20268;-75
2022/03/08 07:58:42;;;;;;;1.93;1.80;;;2.30;99.90;;;;;;6286402;28;20296;-75
2022/03/08 08:01:47;;;;;;;1.77;1.50;;;2.30;99.90;;;;;;6287236;28;20294;-75
2022/03/08 08:04:56;;;;;;;2.00;1.90;;;2.40;99.90;;;;;;6286622;28;20302;-75
2022/03/08 08:08:01;;;;;;;5.80;1.93;;;2.40;99.90;;;;;;6283178;28;20586;-75
2022/03/08 08:11:07;;;;;;;6.77;2.10;;;2.50;99.90;;;;;;6262322;28;20451;-75
2022/03/08 08:14:13;;;;;;;3.77;2.07;;;2.50;99.90;;;;;;6261488;28;20293;-75
2022/03/08 08:17:18;;;;;;;2.50;2.20;;;2.60;99.90;;;;;;6261565;28;20296;-75
2022/03/08 08:20:25;;;;;;;5.50;1.87;;;2.60;99.90;;;;;;6262292;28;20274;-75
2022/03/08 08:23:30;;;;;;;2.10;1.87;;;2.70;99.90;;;;;;6261915;28;20308;-74
2022/03/08 08:26:36;;;;;;;2.37;2.00;;;2.70;99.90;;;;;;6262343;28;20548;-74
2022/03/08 08:29:42;;;;;;;4.30;2.17;;;2.60;99.90;;;;;;6252040;28;20295;-74
2022/03/08 08:32:50;;;;;;;4.73;2.23;;;2.80;99.90;;;;;;6262156;28;20303;-75
2022/03/08 08:35:57;;;;;;;7.23;2.30;;;2.70;99.90;;;;;;6262683;28;20276;-74
2022/03/08 08:39:02;;;;;;;4.73;2.33;;;2.80;99.90;;;;;;6261206;28;20595;-75
2022/03/08 08:42:09;;;;;;;6.93;2.07;;;2.90;99.90;;;;;;6261286;28;20290;-74
2022/03/08 08:45:19;;;;;;;4.10;1.97;;;3.00;99.90;;;;;;6262424;28;20273;-75
2022/03/08 08:48:24;;;;;;;5.13;2.17;;;3.10;99.90;;;;;;6260838;28;20608;-74
2022/03/08 08:51:31;;;;;;;5.27;2.03;;;3.10;99.90;;;;;;6261368;28;20580;-75
2022/03/08 08:54:36;;;;;;;3.77;1.83;;;3.20;99.90;;;;;;6261156;28;20291;-75
2022/03/08 08:57:42;;;;;;;2.30;2.10;;;3.30;99.90;;;;;;6260974;28;20338;-75
2022/03/08 09:00:47;;;;;;;4.83;2.00;;;3.40;99.90;;;;;;6261278;28;20271;-75
2022/03/08 09:03:52;;;;;;;6.43;2.20;;;3.50;99.90;;;;;;6260723;28;20598;-75
2022/03/08 09:06:59;;;;;;;2.00;1.80;;;3.50;99.90;;;;;;6260671;28;20459;-75
2022/03/08 09:10:06;;;;;;;1.63;1.53;;;3.60;99.90;;;;;;6261158;28;20462;-75
2022/03/08 09:13:14;;;;;;;9.83;1.90;;;3.70;99.90;;;;;;6260789;28;20305;-75
2022/03/08 09:16:20;;;;;;;7.47;2.20;;;3.90;99.90;;;;;;6261516;28;20274;-74
2022/03/08 09:19:26;;;;;;;12.00;2.37;;;4.00;99.90;;;;;;6260423;28;20295;-73
2022/03/08 09:22:32;;;;;;;7.73;2.43;;;4.20;99.90;;;;;;6260650;28;20297;-74
2022/03/08 09:25:38;;;;;;;5.90;1.93;;;4.30;99.90;;;;;;6260641;28;20268;-74
2022/03/08 09:28:43;;;;;;;9.83;1.93;;;4.30;99.90;;;;;;6261195;28;20310;-74
2022/03/08 09:31:52;;;;;;;8.13;1.73;;;4.40;99.90;;;;;;6260405;28;20371;-74
2022/03/08 09:34:57;;;;;;;2.80;1.87;;;4.50;99.90;;;;;;6260701;28;20283;-74
2022/03/08 09:38:04;;;;;;;1.70;1.60;;;4.50;99.90;;;;;;6260500;28;20298;-74
2022/03/08 09:41:13;;;;;;;7.57;2.03;;;4.60;99.90;;;;;;6261682;28;20280;-75
2022/03/08 09:44:20;;;;;;;15.97;2.47;;;4.70;99.90;;;;;;6260523;28;20306;-74
2022/03/08 09:58:07;;;;;;;7.80;2.00;;;5.00;99.90;;;;;;6265282;28;20295;-74
2022/03/08 10:01:13;;;;;;;2.10;1.80;;;5.10;99.90;;;;;;6261581;28;20279;-74
2022/03/08 10:04:20;;;;;;;13.83;2.00;;;5.10;99.90;;;;;;6259596;28;20299;-74
2022/03/08 10:08:08;;;;;;;5.80;1.90;;;5.20;99.90;;;;;;6260346;28;20309;-74
2022/03/08 10:11:15;;;;;;;8.23;1.90;;;5.30;99.90;;;;;;6264604;28;20265;-74
2022/03/08 10:14:38;;;;;;;1.47;1.30;;;5.30;99.90;;;;;;6264961;28;20298;-75
2022/03/08 10:17:43;;;;;;;3.77;1.80;;;5.30;99.90;;;;;;6264741;28;20304;-74
2022/03/08 10:20:48;;;;;;;3.00;1.73;;;5.20;99.90;;;;;;6263999;28;20276;-74
2022/03/08 10:23:54;;;;;;;4.93;1.60;;;5.20;99.90;;;;;;6263756;28;20497;-74
2022/03/08 10:27:03;;;;;;;2.93;1.80;;;5.20;99.90;;;;;;6263988;28;20270;-75
2022/03/08 10:30:13;;;;;;;2.10;1.43;;;5.10;99.90;;;;;;6264402;28;20442;-74
2022/03/08 10:33:39;;;;;;;8.07;1.70;;;5.00;99.90;;;;;;6264048;28;20300;-74
2022/03/08 10:37:00;;;;;;;1.80;1.70;;;4.90;99.90;;;;;;6264268;28;20273;-74
2022/03/08 10:40:09;;;;;;;8.63;1.80;;;4.90;99.90;;;;;;6262702;28;20277;-74
2022/03/08 10:43:18;;;;;;;3.43;1.60;;;4.90;99.90;;;;;;6279002;28;20303;-74
2022/03/08 10:46:26;;;;;;;1.13;1.13;;;5.00;99.90;;;;;;6264359;28;20270;-74
2022/03/08 10:49:31;;;;;;;1.40;1.30;;;5.00;99.90;;;;;;6264568;28;20305;-74
2022/03/08 10:52:40;;;;;;;3.30;1.60;;;5.10;99.90;;;;;;6264492;28;20313;-74
2022/03/08 10:55:50;;;;;;;5.10;1.90;;;5.10;99.90;;;;;;6264476;28;20273;-74
2022/03/08 10:58:55;;;;;;;3.53;1.83;;;5.10;99.90;;;;;;6264310;28;20305;-76
2022/03/08 11:02:21;;;;;;;2.30;1.60;;;5.10;99.90;;;;;;6262688;28;20273;-75
2022/03/08 11:05:30;;;;;;;8.53;1.90;;;5.10;99.90;;;;;;6263255;28;20293;-75
2022/03/08 11:08:35;;;;;;;4.10;1.60;;;5.20;99.90;;;;;;6273468;28;20591;-74
2022/03/08 11:11:41;;;;;;;7.80;1.63;;;5.30;99.90;;;;;;6313245;28;20268;-75
2022/03/08 11:14:46;;;;;;;3.67;1.67;;;5.30;99.90;;;;;;6312454;28;20476;-74
2022/03/08 11:17:55;;;;;;;13.57;2.03;;;5.30;99.90;;;;;;6312297;28;20617;-75
2022/03/08 11:21:01;;;;;;;10.10;1.63;;;5.30;99.90;;;;;;6313252;28;20276;-75
2022/03/08 11:24:09;;;;;;;6.80;2.00;;;5.40;99.90;;;;;;6312241;28;20578;-75
2022/03/08 11:27:15;;;;;;;3.57;1.57;;;5.30;99.90;;;;;;6312167;28;20272;-77
2022/03/08 11:30:23;;;;;;;5.00;1.80;;;5.50;99.60;;;;;;6294953;28;20273;-75
2022/03/08 11:33:41;;;;;;;3.37;1.77;;;5.60;99.50;;;;;;6311758;28;20299;-75
2022/03/08 11:36:58;;;;;;;5.53;1.50;;;5.60;99.30;;;;;;6312135;28;20272;-75
2022/03/08 11:40:10;;;;;;;2.73;1.50;;;5.60;99.30;;;;;;6312094;28;20532;-75
2022/03/08 11:43:15;;;;;;;4.87;1.67;;;5.70;98.90;;;;;;6312305;28;20321;-74
2022/03/08 11:46:22;;;;;;;6.63;1.77;;;5.80;98.70;;;;;;6312806;28;20471;-74
2022/03/08 11:49:45;;;;;;;10.90;1.80;;;5.80;99.10;;;;;;6312069;28;20520;-74
2022/03/08 11:53:10;;;;;;;7.10;1.80;;;5.80;98.90;;;;;;6311318;28;20288;-75
2022/03/08 11:56:18;;;;;;;6.67;2.03;;;5.90;98.60;;;;;;6311599;28;20280;-74
2022/03/08 11:59:28;;;;;;;15.03;2.00;;;6.10;97.70;;;;;;6311662;28;20297;-74
2022/03/08 12:02:33;;;;;;;7.50;1.70;;;6.20;97.40;;;;;;6311324;28;20288;-74
2022/03/08 12:05:58;;;;;;;10.23;1.70;;;6.40;97.10;;;;;;6311688;28;20607;-75
2022/03/08 12:09:11;;;;;;;4.37;1.23;;;6.50;96.10;;;;;;6311360;28;20305;-75
2022/03/08 12:12:21;;;;;;;3.53;1.60;;;6.50;96.20;;;;;;6287514;28;20297;-75
2022/03/08 12:15:26;;;;;;;5.77;1.57;;;6.60;95.40;;;;;;6287026;28;20273;-74
2022/03/08 12:18:34;;;;;;;10.33;2.57;;;6.40;95.70;;;;;;6286097;28;20609;-75
2022/03/08 12:21:44;;;;;;;6.90;1.83;;;6.40;96.60;;;;;;6286814;28;20268;-75
2022/03/08 12:24:51;;;;;;;5.33;1.77;;;6.40;96.30;;;;;;6286536;28;20610;-75
2022/03/08 12:27:58;;;;;;;4.13;1.47;;;6.40;96.20;;;;;;6286879;28;20292;-76
2022/03/08 12:31:07;;;;;;;5.50;1.50;;;6.60;95.10;;;;;;6287105;28;20273;-75
2022/03/08 12:34:39;;;;;;;4.13;1.33;;;6.70;94.40;;;;;;6286349;28;20301;-75
2022/03/08 12:38:06;;;;;;;8.27;1.30;;;6.80;94.20;;;;;;6286004;28;20297;-75
2022/03/08 12:41:12;;;;;;;3.80;1.40;;;6.80;94.40;;;;;;6285970;28;20568;-75
2022/03/08 12:44:21;;;;;;;2.77;1.40;;;6.90;93.20;;;;;;6285954;28;20297;-76
2022/03/08 12:47:29;;;;;;;4.90;1.40;;;7.00;93.10;;;;;;6286112;28;20306;-75
2022/03/08 12:50:37;;;;;;;3.23;1.57;;;7.00;92.00;;;;;;6286886;28;20286;-75
2022/03/08 12:53:44;;;;;;;3.47;1.20;;;7.00;92.30;;;;;;6286038;28;20303;-75
2022/03/08 12:56:49;;;;;;;6.67;1.30;;;7.20;91.60;;;;;;6286781;28;20275;-74
2022/03/08 12:59:55;;;;;;;1.93;1.30;;;7.30;91.20;;;;;;6285350;28;20302;-74
2022/03/08 13:03:01;;;;;;;5.20;1.33;;;7.20;91.90;;;;;;6285276;28;20294;-75
2022/03/08 13:06:09;;;;;;;6.53;1.40;;;7.30;90.90;;;;;;6285626;28;20293;-74
2022/03/08 13:09:15;;;;;;;3.70;1.30;;;7.40;90.00;;;;;;6285980;28;20303;-75
2022/03/08 13:12:22;;;;;;;3.70;1.30;;;7.40;88.30;;;;;;6310368;28;20299;-75
2022/03/08 13:15:28;;;;;;;2.80;1.60;;;7.40;89.70;;;;;;6311045;28;20273;-75
2022/03/08 13:18:36;;;;;;;4.13;1.50;;;7.40;87.10;;;;;;6310841;28;20297;-75
2022/03/08 13:21:42;;;;;;;2.90;1.20;;;7.40;87.30;;;;;;6310466;28;20274;-74
2022/03/08 13:25:11;;;;;;;4.87;2.10;;;7.50;84.60;;;;;;6310151;28;20377;-75
2022/03/08 13:28:20;;;;;;;2.23;1.50;;;7.40;85.70;;;;;;6310202;28;20486;-75
2022/03/08 13:31:26;;;;;;;3.43;1.30;;;7.30;88.40;;;;;;6310153;28;20561;-74
2022/03/08 13:34:32;;;;;;;2.73;1.30;;;7.30;87.80;;;;;;6310548;28;20316;-75
2022/03/08 13:37:48;;;;;;;5.17;1.53;;;7.30;88.70;;;;;;6310590;28;20318;-74
2022/03/08 13:40:58;;;;;;;6.53;2.27;;;7.20;90.40;;;;;;6311159;28;20277;-75
2022/03/08 13:44:07;;;;;;;3.70;1.60;;;7.20;90.70;;;;;;6312607;28;20599;-74
2022/03/08 13:47:13;;;;;;;1.93;1.40;;;7.20;92.10;;;;;;6314355;28;20289;-75
2022/03/08 13:50:19;;;;;;;5.40;1.60;;;7.30;91.90;;;;;;6315085;28;20531;-75
2022/03/08 13:53:25;;;;;;;1.63;1.50;;;7.30;92.40;;;;;;6314863;28;20293;-75
2022/03/08 13:56:43;;;;;;;3.93;1.50;;;7.20;92.10;;;;;;6315192;28;20297;-74
2022/03/08 13:59:48;;;;;;;3.17;1.50;;;7.10;93.00;;;;;;6313669;28;20297;-75
2022/03/08 14:02:58;;;;;;;11.53;1.90;;;7.00;93.90;;;;;;6314307;28;20290;-75
2022/03/08 14:06:03;;;;;;;12.20;2.40;;;7.00;94.20;;;;;;6313869;28;20302;-74
2022/03/08 14:09:13;;;;;;;12.93;2.00;;;7.10;94.00;;;;;;6313875;28;20301;-75
2022/03/08 14:12:20;;;;;;;6.10;1.40;;;7.00;94.10;;;;;;6290261;28;20313;-75
2022/03/08 14:15:26;;;;;;;6.27;1.90;;;6.90;94.20;;;;;;6289340;28;20282;-75
2022/03/08 14:18:32;;;;;;;14.53;2.23;;;6.80;94.10;;;;;;6289192;28;20294;-75
2022/03/08 14:21:40;;;;;;;6.00;1.77;;;6.80;94.40;;;;;;6289264;28;20276;-75
2022/03/08 14:24:59;;;;;;;7.87;1.60;;;6.70;93.40;;;;;;6289626;28;20594;-76
2022/03/08 14:28:06;;;;;;;3.50;1.67;;;6.70;93.50;;;;;;6288767;28;20299;-75
2022/03/08 14:31:27;;;;;;;6.53;1.60;;;6.70;93.90;;;;;;6288981;28;20279;-75
2022/03/08 14:34:34;;;;;;;5.77;1.97;;;6.70;94.10;;;;;;6288939;28;20306;-75
2022/03/08 14:37:39;;;;;;;4.87;1.63;;;6.60;94.30;;;;;;6289197;28;20295;-75
2022/03/08 14:40:44;;;;;;;3.97;1.70;;;6.50;95.30;;;;;;6289445;28;20270;-76
2022/03/08 14:43:51;;;;;;;3.07;1.50;;;6.50;95.40;;;;;;6288632;28;20298;-75
2022/03/08 14:46:57;;;;;;;6.33;1.60;;;6.50;95.00;;;;;;6289716;28;20295;-75
2022/03/08 14:50:05;;;;;;;10.10;1.77;;;6.40;94.90;;;;;;6287907;28;20274;-76
2022/03/08 14:53:11;;;;;;;2.43;1.50;;;6.40;95.30;;;;;;6289309;28;20306;-76
2022/03/08 14:56:16;;;;;;;3.40;1.93;;;6.30;95.80;;;;;;6288949;28;20274;-74
2022/03/08 14:59:23;;;;;;;1.67;1.57;;;6.30;95.80;;;;;;6288681;28;20303;-75
2022/03/08 15:02:28;;;;;;;7.07;1.90;;;6.40;94.90;;;;;;6288920;28;20600;-74
2022/03/08 15:05:36;;;;;;;6.67;1.80;;;6.30;95.90;;;;;;6288985;28;20267;-75
2022/03/08 15:08:41;;;;;;;3.40;1.57;;;6.20;96.60;;;;;;6287647;28;20488;-75
2022/03/08 15:11:47;;;;;;;12.27;2.47;;;6.20;96.20;;;;;;6288170;28;20278;-75
2022/03/08 15:14:53;;;;;;;4.40;1.60;;;6.10;96.80;;;;;;6288068;28;20298;-75
2022/03/08 15:17:58;;;;;;;14.73;2.17;;;6.00;97.30;;;;;;6287886;28;20310;-75
2022/03/08 15:21:04;;;;;;;10.77;2.03;;;5.90;97.70;;;;;;6288138;28;20275;-74
2022/03/08 15:24:19;;;;;;;7.07;1.90;;;5.80;98.10;;;;;;6287931;28;20298;-75
2022/03/08 15:27:27;;;;;;;5.03;1.80;;;5.80;98.50;;;;;;6287974;28;20298;-75
2022/03/08 15:30:33;;;;;;;1.70;1.50;;;5.80;98.10;;;;;;6288224;28;20275;-75
2022/03/08 15:33:39;;;;;;;19.67;1.80;;;5.70;98.60;;;;;;6287287;28;20303;-75
2022/03/08 15:36:44;;;;;;;8.90;1.73;;;5.80;98.20;;;;;;6288142;28;20277;-75
2022/03/08 15:39:50;;;;;;;16.43;1.70;;;5.80;97.90;;;;;;6288114;28;20322;-75
2022/03/08 15:42:55;;;;;;;8.27;1.53;;;5.70;98.20;;;;;;6286562;28;20294;-75
2022/03/08 15:46:02;;;;;;;3.90;1.60;;;5.70;98.20;;;;;;6288565;28;20277;-75
2022/03/08 15:49:09;;;;;;;4.30;1.70;;;5.70;98.30;;;;;;6287256;28;20306;-75
2022/03/08 15:52:14;;;;;;;1.90;1.70;;;5.60;98.60;;;;;;6287836;28;20273;-75
2022/03/08 15:55:21;;;;;;;10.20;1.70;;;5.50;99.00;;;;;;6287152;28;20274;-75
2022/03/08 15:58:27;;;;;;;4.27;2.17;;;5.40;99.40;;;;;;6287070;28;20301;-75
2022/03/08 16:01:35;;;;;;;4.60;1.83;;;5.30;99.80;;;;;;6287405;28;20267;-75
2022/03/08 16:04:41;;;;;;;5.23;1.80;;;5.10;99.90;;;;;;6287623;28;20301;-75
2022/03/08 16:07:46;;;;;;;5.50;1.60;;;5.10;99.90;;;;;;6285257;28;20293;-75
2022/03/08 16:10:52;;;;;;;9.10;1.70;;;5.00;99.90;;;;;;6238497;28;20291;-75
2022/03/08 16:13:58;;;;;;;9.10;3.03;;;4.90;99.90;;;;;;6237386;28;20301;-75
2022/03/08 16:17:05;;;;;;;14.63;2.00;;;4.90;99.90;;;;;;6236503;28;20278;-75
2022/03/08 16:20:13;;;;;;;5.17;1.80;;;4.80;99.90;;;;;;6237884;28;20272;-75
2022/03/08 16:23:19;;;;;;;11.63;1.80;;;4.80;99.90;;;;;;6236998;28;20295;-75
2022/03/08 16:26:25;;;;;;;8.73;2.10;;;4.70;99.90;;;;;;6237766;28;20278;-75
2022/03/08 16:29:30;;;;;;;9.80;2.10;;;4.60;99.90;;;;;;6237212;28;20485;-76
2022/03/08 16:32:39;;;;;;;5.07;1.83;;;4.50;99.90;;;;;;6237331;28;20431;-75
2022/03/08 16:35:46;;;;;;;2.47;1.90;;;4.70;99.90;;;;;;6236839;28;20273;-74